Time,TemperatureF,DewpointF,PressureIn,WindDirection,WindDirectionDegrees,WindSpeedMPH,WindSpeedGustMPH,Humidity,HourlyPrecipIn,Conditions,Clouds,dailyrainin,SolarRadiationWatts/m^2,SoftwareType,DateUTC
2013-09-26 00:01:00,35.0,26.0,-100.00,NE,34,3.0,7.0,68,0.00,,,0.00,0.000000,,2013-09-26 07:01:00,
2013-09-26 00:12:00,35.0,26.0,-100.00,NE,34,3.0,7.0,68,0.00,,,0.00,0.000000,,2013-09-26 07:12:00,
2013-09-26 00:22:00,35.0,26.0,-100.00,NE,34,3.0,7.0,68,0.00,,,0.00,0.000000,,2013-09-26 07:22:00,
2013-09-26 00:53:00,36.0,25.0,-100.00,NE,48,4.0,10.0,64,0.00,,,0.00,0.000000,,2013-09-26 07:53:00,
2013-09-26 01:02:00,36.0,25.0,-100.00,NE,48,4.0,10.0,64,0.00,,,0.00,0.000000,,2013-09-26 08:02:00,
2013-09-26 01:11:00,36.0,25.0,-100.00,NE,48,4.0,10.0,64,0.00,,,0.00,0.000000,,2013-09-26 08:11:00,
2013-09-26 01:22:00,36.0,25.0,-100.00,NE,48,4.0,10.0,64,0.00,,,0.00,0.000000,,2013-09-26 08:22:00,
2013-09-26 01:52:00,36.0,23.0,-100.00,WSW,250,3.0,11.0,60,0.00,,,0.00,0.000000,,2013-09-26 08:52:00,
2013-09-26 02:02:00,36.0,23.0,-100.00,WSW,250,3.0,11.0,60,0.00,,,0.00,0.000000,,2013-09-26 09:02:00,
2013-09-26 02:11:00,36.0,23.0,-100.00,WSW,250,3.0,11.0,60,0.00,,,0.00,0.000000,,2013-09-26 09:11:00,
2013-09-26 02:22:00,36.0,23.0,-100.00,WSW,250,3.0,11.0,60,0.00,,,0.00,0.000000,,2013-09-26 09:22:00,
2013-09-26 02:23:00,36.0,22.0,-100.00,West,274,4.0,15.0,57,0.00,,,0.00,0.000000,,2013-09-26 09:23:00,
2013-09-26 02:54:00,36.0,22.0,-100.00,West,274,4.0,15.0,57,0.00,,,0.00,0.000000,,2013-09-26 09:54:00,
2013-09-26 03:03:00,36.0,22.0,-100.00,West,274,4.0,15.0,57,0.00,,,0.00,0.000000,,2013-09-26 10:03:00,
2013-09-26 03:12:00,36.0,22.0,-100.00,West,274,4.0,15.0,57,0.00,,,0.00,0.000000,,2013-09-26 10:12:00,
2013-09-26 03:53:00,35.0,23.0,-100.00,South,189,3.0,17.0,61,0.00,,,0.00,0.000000,,2013-09-26 10:53:00,
2013-09-26 04:02:00,35.0,23.0,-100.00,South,189,3.0,17.0,61,0.00,,,0.00,0.000000,,2013-09-26 11:02:00,
2013-09-26 04:12:00,35.0,23.0,-100.00,South,189,3.0,17.0,61,0.00,,,0.00,0.000000,,2013-09-26 11:12:00,
2013-09-26 04:22:00,35.0,23.0,-100.00,South,189,3.0,17.0,61,0.00,,,0.00,0.000000,,2013-09-26 11:22:00,
2013-09-26 04:52:00,36.0,24.0,-100.00,ESE,104,6.0,14.0,62,0.00,,,0.00,0.000000,,2013-09-26 11:52:00,
2013-09-26 05:01:00,36.0,24.0,-100.00,ESE,104,6.0,14.0,62,0.00,,,0.00,0.000000,,2013-09-26 12:01:00,
2013-09-26 05:11:00,36.0,24.0,-100.00,ESE,104,6.0,14.0,62,0.00,,,0.00,0.000000,,2013-09-26 12:11:00,
2013-09-26 05:21:00,36.0,24.0,-100.00,ESE,104,6.0,14.0,62,0.00,,,0.00,0.000000,,2013-09-26 12:21:00,
2013-09-26 05:52:00,35.0,24.0,-100.00,WSW,243,4.0,17.0,63,0.00,,,0.00,0.000000,,2013-09-26 12:52:00,
2013-09-26 06:02:00,35.0,24.0,-100.00,WSW,243,4.0,17.0,63,0.00,,,0.00,0.000000,,2013-09-26 13:02:00,
2013-09-26 06:11:00,35.0,24.0,-100.00,WSW,243,4.0,17.0,63,0.00,,,0.00,0.000000,,2013-09-26 13:11:00,
2013-09-26 06:21:00,35.0,24.0,-100.00,WSW,243,4.0,17.0,63,0.00,,,0.00,0.000000,,2013-09-26 13:21:00,
2013-09-26 06:52:00,34.0,23.0,-100.00,West,270,5.0,12.0,63,0.00,,,0.00,0.000000,,2013-09-26 13:52:00,
2013-09-26 07:02:00,34.0,23.0,-100.00,West,270,5.0,12.0,63,0.00,,,0.00,0.000000,,2013-09-26 14:02:00,
2013-09-26 07:11:00,34.0,23.0,-100.00,West,270,5.0,12.0,63,0.00,,,0.00,0.000000,,2013-09-26 14:11:00,
2013-09-26 07:22:00,34.0,23.0,-100.00,West,270,5.0,12.0,63,0.00,,,0.00,0.000000,,2013-09-26 14:22:00,
2013-09-26 07:52:00,37.0,23.0,-100.00,ESE,118,7.0,21.0,56,0.00,,,0.00,13.000000,,2013-09-26 14:52:00,
2013-09-26 08:02:00,37.0,23.0,-100.00,ESE,118,7.0,21.0,56,0.00,,,0.00,13.000000,,2013-09-26 15:02:00,
2013-09-26 08:11:00,37.0,23.0,-100.00,ESE,118,7.0,21.0,56,0.00,,,0.00,13.000000,,2013-09-26 15:11:00,
2013-09-26 08:22:00,37.0,23.0,-100.00,ESE,118,7.0,21.0,56,0.00,,,0.00,13.000000,,2013-09-26 15:22:00,
2013-09-26 08:23:00,43.0,24.0,-100.00,ESE,122,4.0,18.0,47,0.00,,,0.00,224.000000,,2013-09-26 15:23:00,
2013-09-26 08:54:00,43.0,24.0,-100.00,ESE,122,4.0,18.0,47,0.00,,,0.00,224.000000,,2013-09-26 15:54:00,
2013-09-26 09:04:00,43.0,24.0,-100.00,ESE,122,4.0,18.0,47,0.00,,,0.00,224.000000,,2013-09-26 16:04:00,
2013-09-26 09:12:00,43.0,24.0,-100.00,ESE,122,4.0,18.0,47,0.00,,,0.00,224.000000,,2013-09-26 16:12:00,
2013-09-26 09:23:00,45.0,23.0,-100.00,ESE,104,13.0,22.0,42,0.00,,,0.00,501.000000,,2013-09-26 16:23:00,
2013-09-26 09:53:00,45.0,23.0,-100.00,ESE,104,13.0,22.0,42,0.00,,,0.00,501.000000,,2013-09-26 16:53:00,
2013-09-26 10:03:00,45.0,23.0,-100.00,ESE,104,13.0,22.0,42,0.00,,,0.00,501.000000,,2013-09-26 17:03:00,
2013-09-26 10:12:00,45.0,23.0,-100.00,ESE,104,13.0,22.0,42,0.00,,,0.00,501.000000,,2013-09-26 17:12:00,
2013-09-26 10:52:00,50.0,24.0,-100.00,SE,135,10.0,25.0,36,0.00,,,0.00,757.000000,,2013-09-26 17:52:00,
2013-09-26 11:01:00,50.0,24.0,-100.00,SE,135,10.0,25.0,36,0.00,,,0.00,757.000000,,2013-09-26 18:01:00,
2013-09-26 11:13:00,50.0,24.0,-100.00,SE,135,10.0,25.0,36,0.00,,,0.00,757.000000,,2013-09-26 18:13:00,
2013-09-26 11:21:00,50.0,24.0,-100.00,SE,135,10.0,25.0,36,0.00,,,0.00,757.000000,,2013-09-26 18:21:00,
2013-09-26 11:52:00,53.0,23.0,-100.00,SE,125,9.0,17.0,31,0.00,,,0.00,955.000000,,2013-09-26 18:52:00,
2013-09-26 12:03:00,53.0,23.0,-100.00,SE,125,9.0,17.0,31,0.00,,,0.00,955.000000,,2013-09-26 19:03:00,
2013-09-26 12:12:00,53.0,23.0,-100.00,SE,125,9.0,17.0,31,0.00,,,0.00,955.000000,,2013-09-26 19:12:00,
2013-09-26 12:22:00,53.0,23.0,-100.00,SE,125,9.0,17.0,31,0.00,,,0.00,955.000000,,2013-09-26 19:22:00,
2013-09-26 12:52:00,53.0,22.0,-100.00,SW,217,3.0,12.0,29,0.00,,,0.00,835.000000,,2013-09-26 19:52:00,
2013-09-26 13:02:00,53.0,22.0,-100.00,SW,217,3.0,12.0,29,0.00,,,0.00,835.000000,,2013-09-26 20:02:00,
2013-09-26 13:12:00,53.0,22.0,-100.00,SW,217,3.0,12.0,29,0.00,,,0.00,835.000000,,2013-09-26 20:12:00,
2013-09-26 13:22:00,53.0,22.0,-100.00,SW,217,3.0,12.0,29,0.00,,,0.00,835.000000,,2013-09-26 20:22:00,
2013-09-26 13:23:00,55.0,26.0,-100.00,WSW,254,8.0,19.0,32,0.00,,,0.00,914.000000,,2013-09-26 20:23:00,
2013-09-26 13:52:00,55.0,26.0,-100.00,WSW,254,8.0,19.0,32,0.00,,,0.00,914.000000,,2013-09-26 20:52:00,
2013-09-26 14:02:00,55.0,26.0,-100.00,WSW,254,8.0,19.0,32,0.00,,,0.00,914.000000,,2013-09-26 21:02:00,
2013-09-26 14:11:00,55.0,26.0,-100.00,WSW,254,8.0,19.0,32,0.00,,,0.00,914.000000,,2013-09-26 21:11:00,
2013-09-26 14:23:00,55.0,29.0,-100.00,WSW,245,9.0,25.0,36,0.00,,,0.00,652.000000,,2013-09-26 21:23:00,
2013-09-26 14:54:00,55.0,29.0,-100.00,WSW,245,9.0,25.0,36,0.00,,,0.00,652.000000,,2013-09-26 21:54:00,
2013-09-26 15:04:00,55.0,29.0,-100.00,WSW,245,9.0,25.0,36,0.00,,,0.00,652.000000,,2013-09-26 22:04:00,
2013-09-26 15:14:00,55.0,29.0,-100.00,WSW,245,9.0,25.0,36,0.00,,,0.00,652.000000,,2013-09-26 22:14:00,
2013-09-26 15:23:00,51.0,27.0,-100.00,WSW,248,6.0,19.0,39,0.00,,,0.00,563.000000,,2013-09-26 22:23:00,
2013-09-26 15:54:00,51.0,27.0,-100.00,WSW,248,6.0,19.0,39,0.00,,,0.00,563.000000,,2013-09-26 22:54:00,
2013-09-26 16:03:00,51.0,27.0,-100.00,WSW,248,6.0,19.0,39,0.00,,,0.00,563.000000,,2013-09-26 23:03:00,
2013-09-26 16:12:00,51.0,27.0,-100.00,WSW,248,6.0,19.0,39,0.00,,,0.00,563.000000,,2013-09-26 23:12:00,
2013-09-26 16:53:00,55.0,31.0,-100.00,WSW,243,10.0,21.0,39,0.00,,,0.00,881.000000,,2013-09-26 23:53:00,
2013-09-26 17:02:00,55.0,31.0,-100.00,WSW,243,10.0,21.0,39,0.00,,,0.00,881.000000,,2013-09-27 00:02:00,
2013-09-26 17:22:00,55.0,31.0,-100.00,WSW,243,10.0,21.0,39,0.00,,,0.00,881.000000,,2013-09-27 00:22:00,
2013-09-26 17:23:00,55.0,31.0,-100.00,SW,222,5.0,18.0,40,0.00,,,0.00,651.000000,,2013-09-27 00:23:00,
2013-09-26 17:52:00,55.0,31.0,-100.00,SW,222,5.0,18.0,40,0.00,,,0.00,651.000000,,2013-09-27 00:52:00,
2013-09-26 18:01:00,55.0,31.0,-100.00,SW,222,5.0,18.0,40,0.00,,,0.00,651.000000,,2013-09-27 01:01:00,
2013-09-26 18:11:00,55.0,31.0,-100.00,SW,222,5.0,18.0,40,0.00,,,0.00,651.000000,,2013-09-27 01:11:00,
2013-09-26 18:52:00,49.0,20.0,-100.00,NE,53,8.0,15.0,32,0.00,,,0.00,281.000000,,2013-09-27 01:52:00,
2013-09-26 19:02:00,49.0,20.0,-100.00,NE,53,8.0,15.0,32,0.00,,,0.00,281.000000,,2013-09-27 02:02:00,
2013-09-26 19:12:00,49.0,20.0,-100.00,NE,53,8.0,15.0,32,0.00,,,0.00,281.000000,,2013-09-27 02:12:00,
2013-09-26 19:22:00,49.0,20.0,-100.00,NE,53,8.0,15.0,32,0.00,,,0.00,281.000000,,2013-09-27 02:22:00,
2013-09-26 19:53:00,43.0,20.0,-100.00,North,352,5.0,14.0,39,0.00,,,0.00,8.000000,,2013-09-27 02:53:00,
2013-09-26 20:02:00,43.0,20.0,-100.00,North,352,5.0,14.0,39,0.00,,,0.00,8.000000,,2013-09-27 03:02:00,
2013-09-26 20:12:00,43.0,20.0,-100.00,North,352,5.0,14.0,39,0.00,,,0.00,8.000000,,2013-09-27 03:12:00,
2013-09-26 20:21:00,43.0,20.0,-100.00,North,352,5.0,14.0,39,0.00,,,0.00,8.000000,,2013-09-27 03:21:00,
2013-09-26 20:23:00,42.0,21.0,-100.00,NE,37,6.0,11.0,43,0.00,,,0.00,0.000000,,2013-09-27 03:23:00,
2013-09-26 20:55:00,42.0,21.0,-100.00,NE,37,6.0,11.0,43,0.00,,,0.00,0.000000,,2013-09-27 03:55:00,
2013-09-26 21:05:00,42.0,21.0,-100.00,NE,37,6.0,11.0,43,0.00,,,0.00,0.000000,,2013-09-27 04:05:00,
2013-09-26 21:13:00,42.0,21.0,-100.00,NE,37,6.0,11.0,43,0.00,,,0.00,0.000000,,2013-09-27 04:13:00,
2013-09-26 21:23:00,41.0,20.0,-100.00,ENE,72,7.0,16.0,43,0.00,,,0.00,0.000000,,2013-09-27 04:23:00,
2013-09-26 21:54:00,41.0,20.0,-100.00,ENE,72,7.0,16.0,43,0.00,,,0.00,0.000000,,2013-09-27 04:54:00,
2013-09-26 22:03:00,41.0,20.0,-100.00,ENE,72,7.0,16.0,43,0.00,,,0.00,0.000000,,2013-09-27 05:03:00,
2013-09-26 22:12:00,41.0,20.0,-100.00,ENE,72,7.0,16.0,43,0.00,,,0.00,0.000000,,2013-09-27 05:12:00,
2013-09-26 22:52:00,41.0,21.0,-100.00,ENE,74,6.0,21.0,44,0.00,,,0.00,0.000000,,2013-09-27 05:52:00,
2013-09-26 23:02:00,41.0,21.0,-100.00,ENE,74,6.0,21.0,44,0.00,,,0.00,0.000000,,2013-09-27 06:02:00,
2013-09-26 23:11:00,41.0,21.0,-100.00,ENE,74,6.0,21.0,44,0.00,,,0.00,0.000000,,2013-09-27 06:11:00,
2013-09-26 23:22:00,41.0,21.0,-100.00,ENE,74,6.0,21.0,44,0.00,,,0.00,0.000000,,2013-09-27 06:22:00,
2013-09-26 23:52:00,41.0,22.0,-100.00,WSW,252,5.0,21.0,47,0.00,,,0.00,0.000000,,2013-09-27 06:52:00,